Saint Louis, MO (63114)

9:30 AM CDT on March 24, 2017 (GMT -0500)
St. Ann, MO | | Change Station

Elev 564 ft 38.72 °N, 90.38 °W | Updated 6 seconds ago

Clear
Clear
70.6 °F
Feels Like 76 °F
N
4.0
Wind Variable Wind from NNE

Today
High -- | Low -- °F
--% Chance of Precip.
Yesterday
High -- | Low -- °F
Precip. -- in
Pressure 29.99 in
Visibility 10.0 miles
Clouds Few 15000 ft
Scattered Clouds 25000 ft
Heat Index 76 °F
Dew Point 55 °F
Humidity 58%
Rainfall 0.00 in
Snow Depth Not available.
6:58 AM 7:17 PM
Waning Crescent, 15% visible
METAR KSTL 241351Z 17007KT 10SM FEW150 SCT250 20/11 A3000 RMK AO2 SLP155 T02000111
Pressure 29.99 in
Visibility 10.0 miles
Clouds Few 15000 ft
Scattered Clouds 25000 ft
Heat Index 76 °F
Dew Point 55 °F
Humidity 58%
Rainfall 0.00 in
Snow Depth Not available.
6:58 AM 7:17 PM
Waning Crescent, 15% visible
METAR KSTL 241351Z 17007KT 10SM FEW150 SCT250 20/11 A3000 RMK AO2 SLP155 T02000111

Get Severe Weather Alerts

Thanks for signing up!

Be on the lookout for a verification email in your inbox.

You'll start receiving the daily forecast at 8 AM.

×

10-Day Weather Forecast

Almanac

Astronomy

Mar. 24, 2017 Rise Set
Actual Time
Civil Twilight
Nautical Twilight
Astronomical Twilight
Moon
Length of Visible Light
Length of Day
Tomorrow will be .
, % of the Moon is Illuminated

Today's Extremes

State Highs State Lows

Community

WunderPhotos

Upload Photos

1,962,540 photos uploaded!

WunderBlog® & News

Nearby

Air Quality

  Air Quality AQ Index Pollutant
Not available.

Snow Depth

Station Depth Elevation

Earthquake Activity

City Distance Mag. Time & Date
Minimum magnitude displayed is 2.5.

Earthquake Activity

City Distance Mag. Time & Date
Minimum magnitude displayed is 2.5.

Coastal Water Temperatures

Place Temperature

Stations

Nearby Weather Stations

Station Location Temp. Windchill Dew Point Humidity Wind Precip. Elev Updated Type
                   

Watches & Warnings

There are currently no watches in effect.